Time;durP1;ratioP1;P1;durP2;ratioP2;P2;SDS_P1;SDS_P2;PMS_P1;PMS_P2;Temp;Humidity;BMP_temperature;BMP_pressure;BME280_temperature;BME280_humidity;BME280_pressure;Samples;Min_cycle;Max_cycle;Signal;HPM_P1;HPM_P2
2021/08/30 00:01:45;;;;;;;1.17;0.70;;;23.00;56.90;;;;;;6171592;23;20700;-86
2021/08/30 00:04:37;;;;;;;1.00;0.70;;;23.00;56.90;;;;;;6170365;23;20156;-86
2021/08/30 00:07:04;;;;;;;0.80;0.60;;;23.00;56.90;;;;;;6197437;23;20132;-86
2021/08/30 00:09:41;;;;;;;0.83;0.70;;;23.00;57.00;;;;;;6171554;23;20466;-86
2021/08/30 00:18:58;;;;;;;1.00;0.77;;;23.00;57.00;;;;;;6077630;23;20835;-86
2021/08/30 00:21:24;;;;;;;0.80;0.70;;;23.00;57.10;;;;;;6077676;23;20415;-86
2021/08/30 00:23:50;;;;;;;1.10;0.83;;;23.00;57.10;;;;;;6077333;23;20398;-86
2021/08/30 00:26:16;;;;;;;0.90;0.67;;;23.00;57.00;;;;;;6052805;23;20390;-86
2021/08/30 00:28:42;;;;;;;1.00;0.80;;;23.00;57.00;;;;;;6077841;23;20161;-86
2021/08/30 00:31:14;;;;;;;0.90;0.70;;;23.00;57.00;;;;;;6077079;23;20383;-86
2021/08/30 00:34:04;;;;;;;0.80;0.67;;;23.00;57.00;;;;;;6077534;23;20598;-86
2021/08/30 00:36:30;;;;;;;1.00;0.80;;;23.00;56.90;;;;;;6077718;23;20503;-86
2021/08/30 00:38:56;;;;;;;0.90;0.77;;;23.00;57.00;;;;;;6077369;23;20425;-86
2021/08/30 00:41:23;;;;;;;1.00;0.77;;;23.00;57.00;;;;;;6052935;23;20379;-86
2021/08/30 00:43:57;;;;;;;1.10;0.77;;;23.00;57.00;;;;;;6076891;23;20817;-86
2021/08/30 00:46:23;;;;;;;1.10;0.73;;;23.00;57.00;;;;;;6077919;23;20378;-86
2021/08/30 00:48:51;;;;;;;1.00;0.60;;;23.00;57.00;;;;;;6077154;23;20406;-86
2021/08/30 00:51:19;;;;;;;0.90;0.70;;;23.00;57.00;;;;;;6080453;23;20391;-86
2021/08/30 00:53:48;;;;;;;0.80;0.60;;;23.00;57.00;;;;;;6170361;23;20375;-87
2021/08/30 00:56:15;;;;;;;1.07;0.70;;;23.00;57.00;;;;;;6170190;23;20936;-86
2021/08/30 00:58:46;;;;;;;0.90;0.70;;;23.00;57.00;;;;;;6170164;23;20940;-86
2021/08/30 01:01:15;;;;;;;0.90;0.70;;;23.00;57.00;;;;;;6171240;23;20375;-86
2021/08/30 01:03:41;;;;;;;1.00;0.70;;;23.00;57.00;;;;;;6196637;23;20375;-86
2021/08/30 01:06:35;;;;;;;0.90;0.70;;;23.00;57.00;;;;;;6195757;23;20854;-86
2021/08/30 01:18:35;;;;;;;1.00;0.77;;;23.00;57.10;;;;;;6197572;23;20440;-86
2021/08/30 01:21:37;;;;;;;1.00;0.80;;;22.90;57.00;;;;;;6172271;23;20872;-86
2021/08/30 01:24:22;;;;;;;1.00;0.67;;;23.00;57.10;;;;;;6198517;23;20367;-86
2021/08/30 01:26:54;;;;;;;1.10;0.80;;;23.00;57.10;;;;;;6172957;23;20367;-86
2021/08/30 01:29:36;;;;;;;0.90;0.60;;;23.00;57.10;;;;;;6198575;23;20355;-86
2021/08/30 01:32:32;;;;;;;1.00;0.80;;;23.00;57.10;;;;;;6172623;23;20371;-86
2021/08/30 01:35:02;;;;;;;0.90;0.60;;;23.00;57.10;;;;;;6198532;23;20394;-86
2021/08/30 01:37:31;;;;;;;1.00;0.70;;;22.90;57.10;;;;;;6199481;23;20766;-86
2021/08/30 01:39:59;;;;;;;0.90;0.60;;;22.90;57.00;;;;;;6172668;23;20427;-86
2021/08/30 01:42:29;;;;;;;0.90;0.60;;;23.00;57.10;;;;;;6171907;23;20382;-86
2021/08/30 01:45:00;;;;;;;0.90;0.60;;;23.00;57.10;;;;;;6198637;23;20375;-86
2021/08/30 01:47:30;;;;;;;0.90;0.63;;;23.00;57.10;;;;;;6172000;23;20377;-86
2021/08/30 01:50:03;;;;;;;0.90;0.70;;;23.00;57.10;;;;;;6172907;23;20441;-86
2021/08/30 01:52:36;;;;;;;0.90;0.60;;;23.00;57.10;;;;;;6172172;23;20383;-86
2021/08/30 01:55:16;;;;;;;1.10;0.73;;;23.00;57.00;;;;;;6172292;23;20387;-86
2021/08/30 02:03:07;;;;;;;0.90;0.73;;;23.00;57.10;;;;;;6197856;23;20359;-86
2021/08/30 02:05:33;;;;;;;0.90;0.70;;;23.00;57.10;;;;;;6171883;23;20709;-86
2021/08/30 02:07:59;;;;;;;0.80;0.60;;;23.00;57.10;;;;;;6172079;23;20152;-86
2021/08/30 02:10:28;;;;;;;0.90;0.60;;;23.00;57.10;;;;;;6171719;23;20156;-86
2021/08/30 02:12:54;;;;;;;0.90;0.60;;;23.00;57.00;;;;;;6171885;23;20383;-86
2021/08/30 02:15:22;;;;;;;1.00;0.70;;;23.00;57.10;;;;;;6172500;23;20501;-86
2021/08/30 02:17:55;;;;;;;0.80;0.60;;;23.00;57.00;;;;;;6172026;23;20167;-86
2021/08/30 02:20:29;;;;;;;0.90;0.60;;;23.00;57.00;;;;;;6228426;23;20402;-86
2021/08/30 02:22:56;;;;;;;1.17;1.00;;;23.00;57.00;;;;;;6228424;23;20366;-86
2021/08/30 02:25:22;;;;;;;0.80;0.60;;;23.00;57.00;;;;;;6227980;23;20375;-86
2021/08/30 02:27:58;;;;;;;0.90;0.60;;;23.00;57.00;;;;;;6201414;23;20386;-86
2021/08/30 02:30:34;;;;;;;1.00;0.80;;;23.00;57.00;;;;;;6201395;23;20680;-86
2021/08/30 02:33:06;;;;;;;0.90;0.60;;;23.00;57.00;;;;;;6227749;23;20369;-86
2021/08/30 02:35:41;;;;;;;0.90;0.70;;;23.00;57.10;;;;;;6201944;23;20849;-86
2021/08/30 02:38:12;;;;;;;0.90;0.70;;;23.00;57.00;;;;;;6201875;23;20490;-86
2021/08/30 02:40:43;;;;;;;0.90;0.67;;;23.00;57.10;;;;;;6201515;23;20742;-86
2021/08/30 02:43:10;;;;;;;0.90;0.70;;;22.90;57.00;;;;;;6227550;23;20358;-86
2021/08/30 02:45:37;;;;;;;0.90;0.70;;;22.90;57.00;;;;;;6201450;23;20382;-86
2021/08/30 02:48:04;;;;;;;1.17;0.70;;;22.90;57.00;;;;;;6228546;23;20370;-86
2021/08/30 02:50:31;;;;;;;0.90;0.70;;;22.90;57.00;;;;;;6201558;23;20374;-86
2021/08/30 02:53:00;;;;;;;0.80;0.50;;;22.90;57.00;;;;;;6225709;23;20417;-86
2021/08/30 02:55:26;;;;;;;0.80;0.60;;;22.90;57.00;;;;;;6201250;23;20390;-86
2021/08/30 02:57:55;;;;;;;0.90;0.60;;;22.90;57.00;;;;;;6201184;23;20378;-86
2021/08/30 03:00:20;;;;;;;1.10;0.80;;;22.90;57.00;;;;;;6227306;23;20464;-86
2021/08/30 03:02:47;;;;;;;1.00;0.73;;;22.90;57.00;;;;;;6201324;23;20861;-86
2021/08/30 03:05:14;;;;;;;1.00;0.80;;;23.00;57.10;;;;;;6227679;23;20174;-86
2021/08/30 03:07:40;;;;;;;0.90;0.60;;;22.90;57.00;;;;;;6200904;23;20385;-86
2021/08/30 03:10:07;;;;;;;0.90;0.70;;;22.90;57.00;;;;;;6200921;23;20386;-86
2021/08/30 03:12:37;;;;;;;1.00;0.70;;;22.90;57.00;;;;;;6201051;23;20390;-86
2021/08/30 03:15:06;;;;;;;1.13;0.70;;;22.90;57.00;;;;;;6228222;23;20354;-86
2021/08/30 03:17:34;;;;;;;0.80;0.70;;;22.90;57.00;;;;;;6228122;23;20441;-86
2021/08/30 03:20:00;;;;;;;0.90;0.60;;;22.90;57.00;;;;;;6223886;23;20787;-86
2021/08/30 03:22:27;;;;;;;0.90;0.60;;;22.90;57.00;;;;;;6225911;23;20853;-86
2021/08/30 03:24:53;;;;;;;0.90;0.77;;;22.90;57.00;;;;;;6226276;23;20386;-85
2021/08/30 03:27:20;;;;;;;1.00;0.70;;;22.90;57.00;;;;;;6225956;23;20409;-86
2021/08/30 03:29:47;;;;;;;1.00;0.80;;;22.90;57.00;;;;;;6228031;23;20401;-86
2021/08/30 03:32:15;;;;;;;0.90;0.60;;;22.90;57.00;;;;;;6227051;23;20378;-86
2021/08/30 03:34:41;;;;;;;1.00;0.70;;;22.90;57.00;;;;;;6227197;23;20378;-86
2021/08/30 03:37:11;;;;;;;0.90;0.60;;;22.90;57.00;;;;;;6251577;23;20382;-86
2021/08/30 03:39:43;;;;;;;1.20;0.80;;;22.90;57.00;;;;;;6250812;23;20441;-86
2021/08/30 03:42:10;;;;;;;0.90;0.80;;;22.90;57.00;;;;;;6225555;23;20369;-85
2021/08/30 03:44:37;;;;;;;0.80;0.60;;;22.90;57.00;;;;;;6227667;23;20366;-86
2021/08/30 03:47:05;;;;;;;0.90;0.60;;;22.90;57.00;;;;;;6230848;23;20697;-85
2021/08/30 03:49:35;;;;;;;0.90;0.70;;;22.90;57.00;;;;;;6227132;23;20390;-86
2021/08/30 03:52:04;;;;;;;1.00;0.80;;;22.90;57.00;;;;;;6225790;23;20409;-86
2021/08/30 03:54:31;;;;;;;0.90;0.70;;;22.90;57.10;;;;;;6227992;23;20375;-86
2021/08/30 03:56:58;;;;;;;1.07;0.90;;;22.90;57.00;;;;;;6227478;23;20405;-86
2021/08/30 03:59:26;;;;;;;0.90;0.70;;;22.90;57.00;;;;;;6227207;23;20417;-86
2021/08/30 04:01:54;;;;;;;0.90;0.70;;;22.90;57.00;;;;;;6226820;23;20378;-86
2021/08/30 04:04:22;;;;;;;0.80;0.60;;;22.90;57.00;;;;;;6226846;23;20377;-86
2021/08/30 04:06:48;;;;;;;0.97;0.80;;;22.90;57.00;;;;;;6227191;23;20374;-86
2021/08/30 04:09:20;;;;;;;0.80;0.67;;;22.90;57.00;;;;;;6251555;23;20382;-86
2021/08/30 04:11:49;;;;;;;0.80;0.60;;;22.90;57.00;;;;;;6227136;23;20354;-85
2021/08/30 04:14:21;;;;;;;1.00;0.80;;;22.90;57.00;;;;;;6225791;23;20446;-86
2021/08/30 04:16:47;;;;;;;1.00;0.60;;;22.90;57.10;;;;;;6226844;23;20354;-86
2021/08/30 04:19:17;;;;;;;1.10;0.77;;;22.90;57.00;;;;;;6225357;23;20457;-86
2021/08/30 04:21:43;;;;;;;0.90;0.70;;;22.90;57.00;;;;;;6226005;23;20848;-86
2021/08/30 04:24:09;;;;;;;1.00;0.60;;;22.90;57.00;;;;;;6231883;23;20370;-86
2021/08/30 04:26:36;;;;;;;0.90;0.70;;;22.90;57.00;;;;;;6257427;23;20151;-86
2021/08/30 04:29:05;;;;;;;1.03;0.70;;;22.90;57.00;;;;;;6231934;23;20383;-86
2021/08/30 04:31:32;;;;;;;0.90;0.60;;;22.90;57.00;;;;;;6228138;23;20378;-86
2021/08/30 04:34:00;;;;;;;0.90;0.60;;;22.90;56.90;;;;;;6227874;23;20397;-86
2021/08/30 04:36:28;;;;;;;0.90;0.63;;;22.90;56.90;;;;;;6228695;23;20390;-86
2021/08/30 04:38:57;;;;;;;1.43;0.70;;;23.00;57.00;;;;;;6228045;23;20422;-86
2021/08/30 04:41:23;;;;;;;0.90;0.70;;;23.00;56.90;;;;;;6254223;23;20374;-86
2021/08/30 04:43:55;;;;;;;0.80;0.60;;;23.00;56.90;;;;;;6253659;23;20463;-86
2021/08/30 04:46:22;;;;;;;0.80;0.60;;;23.00;56.80;;;;;;6228680;23;20370;-85
2021/08/30 04:48:50;;;;;;;1.00;0.70;;;23.00;56.80;;;;;;6229579;23;20462;-86
2021/08/30 04:51:18;;;;;;;0.97;0.70;;;23.00;56.80;;;;;;6229868;23;20374;-86
2021/08/30 04:53:55;;;;;;;0.80;0.60;;;23.00;56.80;;;;;;6252700;23;20386;-86
2021/08/30 04:56:23;;;;;;;0.90;0.60;;;23.00;56.80;;;;;;6229530;23;20354;-86
2021/08/30 04:58:51;;;;;;;0.80;0.70;;;23.00;56.80;;;;;;6227540;23;20422;-85
2021/08/30 05:01:25;;;;;;;0.90;0.60;;;23.00;56.70;;;;;;6253718;23;20410;-86
2021/08/30 05:03:53;;;;;;;1.07;0.80;;;23.10;56.80;;;;;;6253481;23;20381;-86
2021/08/30 05:06:30;;;;;;;0.83;0.60;;;23.10;56.80;;;;;;6228484;23;20442;-86
2021/08/30 05:08:56;;;;;;;0.90;0.60;;;23.10;56.80;;;;;;6228983;23;20409;-86
2021/08/30 05:11:22;;;;;;;1.03;0.70;;;23.10;56.70;;;;;;6257012;23;20391;-86
2021/08/30 05:13:53;;;;;;;0.90;0.60;;;23.10;56.70;;;;;;6258018;23;20385;-86
2021/08/30 05:16:21;;;;;;;0.90;0.70;;;23.10;56.70;;;;;;6254551;23;20397;-85
2021/08/30 05:18:47;;;;;;;0.90;0.70;;;23.10;56.70;;;;;;6231708;23;20433;-85
2021/08/30 05:21:16;;;;;;;0.90;0.60;;;23.10;56.70;;;;;;6233539;23;20375;-85
2021/08/30 05:23:45;;;;;;;0.80;0.50;;;23.10;56.70;;;;;;6230812;23;20158;-85
2021/08/30 05:26:14;;;;;;;0.90;0.70;;;23.10;56.70;;;;;;6233886;23;20385;-85
2021/08/30 05:28:49;;;;;;;0.90;0.70;;;23.10;56.70;;;;;;6230968;23;20378;-85
2021/08/30 05:31:15;;;;;;;1.00;0.70;;;23.10;56.60;;;;;;6230966;23;20358;-86
2021/08/30 05:33:41;;;;;;;0.90;0.60;;;23.10;56.70;;;;;;6229589;23;20378;-86
2021/08/30 05:36:07;;;;;;;0.80;0.60;;;23.10;56.70;;;;;;6228565;23;20161;-86
2021/08/30 05:38:35;;;;;;;0.90;0.70;;;23.10;56.60;;;;;;6228169;23;20378;-86
2021/08/30 05:41:08;;;;;;;1.00;0.70;;;23.10;56.60;;;;;;6228426;23;20386;-86
2021/08/30 05:43:36;;;;;;;0.97;0.73;;;23.10;56.60;;;;;;6228723;23;20351;-86
2021/08/30 05:46:02;;;;;;;1.10;0.70;;;23.10;56.60;;;;;;6227775;23;20386;-86
2021/08/30 05:48:45;;;;;;;1.00;0.70;;;23.10;56.60;;;;;;6229913;23;20855;-86
2021/08/30 05:51:12;;;;;;;0.90;0.60;;;23.10;56.60;;;;;;6228820;23;20370;-86
2021/08/30 05:53:49;;;;;;;0.90;0.70;;;23.10;56.60;;;;;;6229480;23;20363;-86
2021/08/30 05:56:15;;;;;;;0.87;0.63;;;23.10;56.60;;;;;;6229688;23;20350;-85
2021/08/30 05:58:41;;;;;;;0.90;0.70;;;23.10;56.70;;;;;;6228380;23;20422;-85
2021/08/30 06:01:07;;;;;;;0.80;0.60;;;23.10;56.70;;;;;;6227589;23;20151;-86
2021/08/30 06:03:36;;;;;;;1.00;0.70;;;23.10;56.60;;;;;;6230622;23;20147;-86
2021/08/30 06:09:29;;;;;;;;;;;;;;;;;;;;;
2021/08/30 06:11:55;;;;;;;0.90;0.60;;;23.10;56.70;;;;;;6234062;23;20382;-86
2021/08/30 06:14:21;;;;;;;0.90;0.60;;;23.10;56.70;;;;;;6232293;23;20394;-86
2021/08/30 06:16:49;;;;;;;1.00;0.70;;;23.10;56.70;;;;;;6234440;23;20162;-86
2021/08/30 06:19:25;;;;;;;1.00;0.67;;;23.20;56.70;;;;;;6257068;23;20687;-86
2021/08/30 06:21:54;;;;;;;0.90;0.70;;;23.20;56.70;;;;;;6233051;23;20367;-85
2021/08/30 06:27:27;;;;;;;0.90;0.70;;;23.20;56.70;;;;;;6231432;23;20817;-83
2021/08/30 06:29:58;;;;;;;0.90;0.60;;;23.20;56.70;;;;;;6231579;23;20358;-86
2021/08/30 06:32:24;;;;;;;0.90;0.70;;;23.20;56.60;;;;;;6255023;23;20424;-86
2021/08/30 06:35:01;;;;;;;;;;;;;;;;;;;;;
2021/08/30 06:43:56;;;;;;;0.90;0.70;;;23.20;56.60;;;;;;6231502;23;20345;-86
2021/08/30 06:46:22;;;;;;;1.30;0.80;;;23.20;56.60;;;;;;6255120;23;20382;-86
2021/08/30 06:48:51;;;;;;;1.00;0.60;;;23.20;56.60;;;;;;6255353;23;20417;-86
2021/08/30 06:51:17;;;;;;;1.43;0.77;;;23.30;56.60;;;;;;6229825;23;20421;-86
2021/08/30 06:53:57;;;;;;;1.10;0.60;;;23.30;56.60;;;;;;6229360;23;20374;-86
2021/08/30 06:56:26;;;;;;;0.90;0.67;;;23.30;56.50;;;;;;6228941;23;20386;-86
2021/08/30 06:58:55;;;;;;;0.80;0.60;;;23.30;56.50;;;;;;6255134;23;20430;-86
2021/08/30 07:01:23;;;;;;;1.00;0.70;;;23.30;56.50;;;;;;6229562;23;20387;-86
2021/08/30 07:03:49;;;;;;;1.00;0.70;;;23.30;56.40;;;;;;6229743;23;20382;-86
2021/08/30 07:27:11;;;;;;;0.80;0.60;;;23.30;56.60;;;;;;5939256;24;20401;-85
2021/08/30 07:29:40;;;;;;;0.90;0.67;;;23.20;56.70;;;;;;5939249;24;20887;-85
2021/08/30 07:32:07;;;;;;;1.00;0.70;;;23.30;56.70;;;;;;5996011;23;20408;-85
2021/08/30 07:35:05;;;;;;;1.10;0.80;;;23.30;56.60;;;;;;6024167;23;20420;-85
2021/08/30 07:37:32;;;;;;;0.83;0.60;;;23.30;56.60;;;;;;5995794;23;20867;-85
2021/08/30 07:40:15;;;;;;;0.90;0.70;;;23.30;56.60;;;;;;6023249;23;20428;-86
2021/08/30 07:42:46;;;;;;;0.90;0.70;;;23.30;56.60;;;;;;6023930;23;20488;-85
2021/08/30 07:49:00;;;;;;;0.93;0.70;;;23.40;56.70;;;;;;6139052;23;20392;-86
2021/08/30 07:51:46;;;;;;;0.87;0.60;;;23.30;56.60;;;;;;6139850;23;20357;-86
2021/08/30 07:54:13;;;;;;;0.90;0.70;;;23.30;56.70;;;;;;6184728;23;20425;-85
2021/08/30 07:56:45;;;;;;;0.90;0.70;;;23.30;56.70;;;;;;6173525;23;20406;-85
2021/08/30 07:59:25;;;;;;;0.93;0.70;;;23.30;56.70;;;;;;6199211;23;20494;-85
2021/08/30 08:01:53;;;;;;;1.00;0.67;;;23.30;56.60;;;;;;6174683;23;20382;-86
2021/08/30 08:04:25;;;;;;;0.90;0.70;;;23.30;56.60;;;;;;6202211;23;20407;-86
2021/08/30 08:07:16;;;;;;;1.00;0.60;;;23.40;56.70;;;;;;6199681;23;20371;-86
2021/08/30 08:09:51;;;;;;;0.90;0.67;;;23.40;56.70;;;;;;6176337;23;20383;-86
2021/08/30 08:12:21;;;;;;;0.90;0.60;;;23.40;56.80;;;;;;6201787;23;20380;-86
2021/08/30 08:14:49;;;;;;;0.90;0.60;;;23.40;56.80;;;;;;6199188;23;20454;-86
2021/08/30 08:17:20;;;;;;;0.80;0.70;;;23.40;56.80;;;;;;6202198;23;20383;-85
2021/08/30 08:20:07;;;;;;;0.80;0.60;;;23.40;56.80;;;;;;6200565;23;20434;-86
2021/08/30 08:22:36;;;;;;;1.00;0.80;;;23.40;56.80;;;;;;6173489;23;20402;-86
2021/08/30 08:28:01;;;;;;;0.90;0.70;;;23.40;56.70;;;;;;6231502;23;20357;-85
2021/08/30 08:30:27;;;;;;;1.03;0.87;;;23.40;56.80;;;;;;6230258;23;20375;-85
2021/08/30 08:32:53;;;;;;;0.90;0.70;;;23.40;56.80;;;;;;6229197;23;20436;-84
2021/08/30 08:35:44;;;;;;;0.87;0.63;;;23.40;56.80;;;;;;6231221;23;20401;-85
2021/08/30 08:38:28;;;;;;;0.90;0.70;;;23.40;56.70;;;;;;6229053;23;20385;-86
2021/08/30 08:41:00;;;;;;;0.80;0.60;;;23.40;56.80;;;;;;6230433;23;20357;-85
2021/08/30 08:43:29;;;;;;;0.90;0.60;;;23.40;56.80;;;;;;6228624;23;20402;-85
2021/08/30 08:45:57;;;;;;;0.90;0.70;;;23.40;56.80;;;;;;6229449;23;20378;-85
2021/08/30 08:48:52;;;;;;;0.90;0.60;;;23.40;56.80;;;;;;6228309;23;20449;-85
2021/08/30 08:51:21;;;;;;;1.10;0.70;;;23.40;56.70;;;;;;6254827;23;20408;-86
2021/08/30 08:53:55;;;;;;;0.90;0.70;;;23.40;56.80;;;;;;6254700;23;20382;-84
2021/08/30 08:56:42;;;;;;;1.00;0.70;;;23.40;56.80;;;;;;6229110;23;20369;-85
2021/08/30 08:59:08;;;;;;;0.80;0.60;;;23.40;56.70;;;;;;6255182;23;20472;-86
2021/08/30 09:01:40;;;;;;;1.00;0.70;;;23.40;56.70;;;;;;6230455;23;20374;-86
2021/08/30 09:04:28;;;;;;;0.80;0.63;;;23.40;56.70;;;;;;6232171;23;20374;-85
2021/08/30 09:07:13;;;;;;;0.90;0.70;;;23.40;56.70;;;;;;6233007;23;20394;-85
2021/08/30 09:09:43;;;;;;;0.90;0.70;;;23.40;56.70;;;;;;6258871;23;20441;-85
2021/08/30 09:12:29;;;;;;;0.80;0.60;;;23.40;56.70;;;;;;6232592;23;20386;-86
2021/08/30 09:15:26;;;;;;;0.90;0.70;;;23.40;56.70;;;;;;6257600;23;20378;-86
2021/08/30 09:18:07;;;;;;;0.90;0.60;;;23.40;56.70;;;;;;6232594;23;20417;-86
2021/08/30 09:20:33;;;;;;;1.00;0.70;;;23.30;56.60;;;;;;6231415;23;20440;-86
2021/08/30 09:23:14;;;;;;;0.87;0.60;;;23.30;56.60;;;;;;6228504;23;20794;-85
2021/08/30 09:25:44;;;;;;;0.87;0.67;;;23.40;56.70;;;;;;6230995;23;20413;-86
2021/08/30 09:28:26;;;;;;;0.90;0.70;;;23.30;56.60;;;;;;6228785;23;20891;-86
2021/08/30 09:30:58;;;;;;;0.90;0.60;;;23.40;56.70;;;;;;6229576;23;20381;-85
2021/08/30 09:33:26;;;;;;;0.90;0.70;;;23.30;56.60;;;;;;6229530;23;20363;-85
2021/08/30 09:36:04;;;;;;;0.90;0.60;;;23.40;56.70;;;;;;6229163;23;20382;-85
2021/08/30 09:38:57;;;;;;;;;;;;;;;;;;;;;
2021/08/30 09:41:49;;;;;;;1.10;0.70;;;23.40;56.60;;;;;;6231705;23;20374;-86
2021/08/30 09:44:34;;;;;;;1.00;0.70;;;23.40;56.60;;;;;;6256667;23;20925;-87
2021/08/30 09:49:57;;;;;;;0.80;0.60;;;23.30;56.60;;;;;;6231900;23;20374;-86
2021/08/30 09:52:28;;;;;;;0.80;0.60;;;23.30;56.60;;;;;;6257203;23;20378;-86
2021/08/30 09:54:53;;;;;;;0.90;0.60;;;23.30;56.60;;;;;;6231644;23;20393;-86
2021/08/30 09:57:34;;;;;;;1.00;0.70;;;23.30;56.60;;;;;;6232125;23;20385;-87
2021/08/30 10:00:10;;;;;;;0.90;0.70;;;23.30;56.60;;;;;;6234792;23;20177;-86
2021/08/30 10:02:36;;;;;;;0.90;0.60;;;23.30;56.60;;;;;;6233992;23;20347;-86
2021/08/30 10:05:30;;;;;;;0.90;0.70;;;23.40;56.70;;;;;;6233603;23;20370;-86
2021/08/30 10:08:04;;;;;;;0.90;0.80;;;23.40;56.70;;;;;;6234215;23;20409;-86
2021/08/30 10:10:49;;;;;;;;;;;;;;;;;;;;;
2021/08/30 10:13:31;;;;;;;0.80;0.60;;;23.30;56.60;;;;;;6236118;23;20362;-86
2021/08/30 10:16:04;;;;;;;0.87;0.70;;;23.40;56.70;;;;;;6232316;23;20381;-86
2021/08/30 10:18:51;;;;;;;0.90;0.60;;;23.30;56.60;;;;;;6230973;23;20382;-86
2021/08/30 10:21:23;;;;;;;0.80;0.60;;;23.30;56.60;;;;;;6231041;23;20396;-86
2021/08/30 10:23:55;;;;;;;0.80;0.60;;;23.30;56.60;;;;;;6205652;23;20879;-86
2021/08/30 10:26:58;;;;;;;0.90;0.70;;;23.30;56.60;;;;;;6257897;23;20457;-86
2021/08/30 10:29:32;;;;;;;1.00;0.60;;;23.40;56.70;;;;;;6233687;23;20366;-86
2021/08/30 10:31:58;;;;;;;0.90;0.63;;;23.30;56.70;;;;;;6228308;23;20370;-86
2021/08/30 10:34:31;;;;;;;0.80;0.50;;;23.30;56.80;;;;;;6229523;23;20682;-85
2021/08/30 10:37:03;;;;;;;0.80;0.60;;;23.30;56.90;;;;;;6227964;23;20466;-85
2021/08/30 10:39:41;;;;;;;0.90;0.70;;;23.30;57.00;;;;;;6227815;23;20418;-84
2021/08/30 10:42:16;;;;;;;1.00;0.70;;;23.30;56.90;;;;;;6228207;23;20713;-84
2021/08/30 10:45:04;;;;;;;1.20;0.87;;;23.30;57.00;;;;;;6253105;23;20366;-84
2021/08/30 10:47:39;;;;;;;0.80;0.60;;;23.30;57.10;;;;;;6228411;23;20385;-86
2021/08/30 10:50:24;;;;;;;0.97;0.70;;;23.30;57.10;;;;;;6227630;23;20386;-86
2021/08/30 10:53:02;;;;;;;1.00;0.60;;;23.30;57.10;;;;;;6228224;23;20374;-85
2021/08/30 10:55:40;;;;;;;1.00;0.60;;;23.30;57.20;;;;;;6227423;23;20386;-85
2021/08/30 10:58:24;;;;;;;0.90;0.70;;;23.30;57.10;;;;;;6226655;23;20382;-85
2021/08/30 11:01:19;;;;;;;0.90;0.60;;;23.30;57.10;;;;;;6226850;23;20418;-84
2021/08/30 11:04:04;;;;;;;0.80;0.60;;;23.30;57.10;;;;;;6227626;23;20386;-85
2021/08/30 11:06:38;;;;;;;0.90;0.60;;;23.30;57.20;;;;;;6229130;23;20386;-85
2021/08/30 11:12:26;;;;;;;0.90;0.60;;;23.30;57.70;;;;;;6232312;23;20355;-86
2021/08/30 11:14:57;;;;;;;1.00;0.80;;;23.20;57.20;;;;;;6254978;23;20857;-86
2021/08/30 11:17:49;;;;;;;0.80;0.60;;;23.20;57.20;;;;;;6230338;23;20386;-85
2021/08/30 11:20:17;;;;;;;0.80;0.60;;;23.20;57.10;;;;;;6249302;23;20430;-86
2021/08/30 11:22:52;;;;;;;0.97;0.80;;;23.20;57.20;;;;;;6225468;23;20405;-86
2021/08/30 11:25:18;;;;;;;0.83;0.67;;;23.20;57.10;;;;;;6231059;23;20389;-86
2021/08/30 11:28:02;;;;;;;0.90;0.60;;;23.20;57.20;;;;;;6255208;23;20385;-86
2021/08/30 11:30:46;;;;;;;1.00;0.70;;;23.30;57.20;;;;;;6253126;23;20370;-86
2021/08/30 11:40:04;;;;;;;1.17;0.80;;;23.20;57.20;;;;;;6128589;23;20511;-84
2021/08/30 11:42:36;;;;;;;0.90;0.70;;;23.20;57.20;;;;;;6232276;23;20371;-85
2021/08/30 11:45:15;;;;;;;0.90;0.70;;;23.20;57.20;;;;;;6256104;23;20386;-86
2021/08/30 11:48:00;;;;;;;1.20;0.70;;;23.20;57.20;;;;;;6227817;23;20437;-86
2021/08/30 11:50:41;;;;;;;;;;;;;;;;;;;;;
2021/08/30 11:53:15;;;;;;;0.90;0.60;;;23.30;57.40;;;;;;6231967;23;20347;-86
2021/08/30 11:55:47;;;;;;;0.90;0.70;;;23.30;57.30;;;;;;6229272;23;20410;-86
2021/08/30 11:58:34;;;;;;;0.90;0.60;;;23.30;57.30;;;;;;6230228;23;20406;-86
2021/08/30 12:01:26;;;;;;;0.90;0.67;;;23.30;57.20;;;;;;6228180;23;20809;-86
2021/08/30 12:14:20;;;;;;;0.80;0.60;;;23.30;57.30;;;;;;6227372;23;20358;-86
2021/08/30 12:17:09;;;;;;;;;;;;;;;;;;;;;
2021/08/30 12:19:58;;;;;;;0.90;0.70;;;23.20;57.30;;;;;;6220686;23;20457;-86
2021/08/30 12:22:36;;;;;;;0.90;0.60;;;23.20;57.30;;;;;;6174841;23;20830;-86
2021/08/30 12:25:05;;;;;;;1.10;0.80;;;23.30;57.40;;;;;;6173173;23;20383;-86
2021/08/30 12:27:39;;;;;;;0.80;0.60;;;23.20;57.20;;;;;;6173166;23;20466;-86
2021/08/30 12:30:29;;;;;;;0.90;0.70;;;23.20;57.20;;;;;;6201414;23;20379;-86
2021/08/30 12:33:11;;;;;;;0.93;0.77;;;23.30;57.30;;;;;;6199619;23;20370;-86
2021/08/30 12:35:42;;;;;;;0.80;0.60;;;23.20;57.30;;;;;;6174675;23;20371;-86
2021/08/30 12:38:43;;;;;;;0.90;0.63;;;23.20;57.30;;;;;;6175521;23;20398;-87
2021/08/30 12:41:18;;;;;;;0.80;0.60;;;23.30;57.40;;;;;;6170832;23;20394;-86
2021/08/30 12:43:47;;;;;;;0.80;0.60;;;23.20;57.20;;;;;;6171186;23;20764;-87
2021/08/30 12:46:14;;;;;;;1.00;0.60;;;23.20;57.30;;;;;;6171137;23;20390;-86
2021/08/30 12:48:43;;;;;;;0.90;0.60;;;23.20;57.20;;;;;;6197206;23;20382;-86
2021/08/30 12:51:16;;;;;;;1.00;0.70;;;23.20;57.20;;;;;;6171489;23;20393;-86
2021/08/30 12:53:42;;;;;;;0.90;0.70;;;23.20;57.30;;;;;;6169425;23;20387;-86
2021/08/30 12:56:16;;;;;;;1.00;0.70;;;23.20;57.20;;;;;;6170903;23;20380;-86
2021/08/30 12:58:47;;;;;;;0.90;0.70;;;23.20;57.20;;;;;;6170091;23;20386;-86
2021/08/30 13:07:59;;;;;;;0.90;0.60;;;23.20;57.30;;;;;;6197432;23;20434;-86
2021/08/30 13:10:34;;;;;;;1.00;0.73;;;23.20;57.50;;;;;;6169890;23;20379;-86
2021/08/30 13:13:00;;;;;;;1.00;0.80;;;23.20;57.40;;;;;;6171104;23;20398;-86
2021/08/30 13:15:26;;;;;;;1.13;0.80;;;23.20;57.40;;;;;;6171707;23;20387;-86
2021/08/30 13:18:21;;;;;;;1.07;0.87;;;23.20;57.50;;;;;;6174164;23;20470;-86
2021/08/30 13:20:53;;;;;;;1.00;0.80;;;23.20;57.40;;;;;;6214211;23;20437;-87
2021/08/30 13:23:22;;;;;;;0.80;0.60;;;23.20;57.50;;;;;;6253849;23;20489;-86
2021/08/30 13:25:56;;;;;;;0.90;0.70;;;23.20;57.40;;;;;;6230483;23;20386;-86
2021/08/30 13:28:48;;;;;;;0.83;0.63;;;23.20;57.50;;;;;;6232646;23;20402;-86
2021/08/30 13:31:16;;;;;;;0.80;0.60;;;23.20;57.40;;;;;;6222083;23;20394;-86
2021/08/30 13:33:44;;;;;;;1.00;0.80;;;23.20;57.40;;;;;;6231823;23;20386;-85
2021/08/30 13:36:16;;;;;;;0.97;0.70;;;23.20;57.40;;;;;;6229476;23;20413;-85
2021/08/30 13:42:05;;;;;;;0.90;0.70;;;23.20;57.30;;;;;;6231668;23;20344;-85
2021/08/30 13:45:30;;;;;;;1.00;0.70;;;23.20;57.30;;;;;;6227622;23;20711;-85
2021/08/30 13:47:56;;;;;;;0.90;0.70;;;23.20;57.40;;;;;;6109989;23;20793;-85
2021/08/30 13:50:37;;;;;;;0.90;0.70;;;23.20;57.40;;;;;;6112316;23;20396;-85
2021/08/30 13:53:05;;;;;;;0.93;0.80;;;23.20;57.30;;;;;;6112776;23;20399;-85
2021/08/30 13:55:37;;;;;;;1.10;0.90;;;23.20;57.40;;;;;;6088233;23;20420;-85
2021/08/30 13:58:05;;;;;;;0.90;0.70;;;23.20;57.40;;;;;;6136544;23;20931;-85
2021/08/30 14:00:44;;;;;;;0.87;0.60;;;23.20;57.40;;;;;;6116035;23;20762;-84
2021/08/30 14:03:13;;;;;;;1.53;1.27;;;23.20;57.40;;;;;;6115157;23;20368;-85
2021/08/30 14:05:47;;;;;;;0.90;0.70;;;23.20;57.40;;;;;;6117963;23;20416;-85
2021/08/30 14:08:15;;;;;;;1.03;0.73;;;23.20;57.40;;;;;;6115861;23;20436;-85
2021/08/30 14:10:44;;;;;;;1.30;0.80;;;23.20;57.40;;;;;;6114636;23;20393;-85
2021/08/30 14:13:18;;;;;;;1.10;0.80;;;23.20;57.40;;;;;;6117307;23;20475;-85
2021/08/30 14:15:45;;;;;;;1.00;0.77;;;23.20;57.40;;;;;;6115369;23;20376;-85
2021/08/30 14:18:23;;;;;;;;;;;;;;;;;;;;;
2021/08/30 14:20:49;;;;;;;1.00;0.70;;;23.20;57.50;;;;;;6137578;23;20432;-84
2021/08/30 14:23:42;;;;;;;0.87;0.60;;;23.20;57.50;;;;;;6136942;23;20400;-85
2021/08/30 14:26:13;;;;;;;0.83;0.60;;;23.20;57.40;;;;;;6229616;23;20378;-84
2021/08/30 14:28:40;;;;;;;0.80;0.60;;;23.20;57.50;;;;;;6228003;23;20371;-85
2021/08/30 14:31:15;;;;;;;0.90;0.70;;;23.20;57.50;;;;;;6253335;23;20458;-85
2021/08/30 14:33:44;;;;;;;1.03;0.80;;;23.20;57.40;;;;;;6252615;23;20382;-85
2021/08/30 14:36:27;;;;;;;0.87;0.70;;;23.20;57.40;;;;;;6253579;23;20439;-85
2021/08/30 14:38:57;;;;;;;1.00;0.70;;;23.20;57.50;;;;;;6229722;23;20386;-86
2021/08/30 14:41:51;;;;;;;0.80;0.70;;;23.20;57.50;;;;;;6227764;23;20393;-85
2021/08/30 14:44:20;;;;;;;1.10;0.80;;;23.20;57.50;;;;;;6227665;23;20385;-85
2021/08/30 14:47:09;;;;;;;0.80;0.60;;;23.20;57.50;;;;;;6253252;23;20386;-85
2021/08/30 14:49:53;;;;;;;1.00;0.73;;;23.20;57.50;;;;;;6250543;23;20436;-85
2021/08/30 14:52:19;;;;;;;0.97;0.80;;;23.20;57.50;;;;;;6227876;23;20387;-85
2021/08/30 14:54:53;;;;;;;0.90;0.80;;;23.20;57.50;;;;;;6254688;23;20386;-85
2021/08/30 14:57:21;;;;;;;0.90;0.73;;;23.20;57.50;;;;;;6233760;23;20377;-85
2021/08/30 14:59:48;;;;;;;0.90;0.70;;;23.10;57.50;;;;;;6228111;23;20423;-85
2021/08/30 15:02:14;;;;;;;1.00;0.90;;;23.10;57.40;;;;;;6230871;23;20751;-85